Ames Lake, Washington
Current Conditions -  °F | °C
As of 11:53 PM on Friday 24 Oct 2014 (Local Time) from KBFI Reporting Station
Overcast Overcast  
Wind Chill: 54°   Ceiling: 6500
Heat Index: 54°   Visibility: 10mi
Dew Point: 48°   Wind: 0mph
Humidity: 80%   Direction: NA
Pressure: 29.74"   Gusts: NA
Location:  47.6833°N, 122.123°W
Report Text: KBFI 250653Z 00000KT 10SM OVC065 12/09 A2974 RMK AO2 RAE32 SLP071 P0001 T01220089
Loading
Personal Weather Stations






























Interactive Weather Map
Tropical Storm Tracking
New forecast layout! Learn more

10-Day Weather Forecast

Advertisements
Track Severe Weather on mobile